Snelling, California
Current Conditions -  °F | °C
As of 3:45 PM on Tuesday 25 Nov 2014 (Local Time) from KMER Reporting Station
Haze Haze  
Wind Chill: 64°   Ceiling: Unl
Heat Index: 64°   Visibility: 5mi
Dew Point: 48°   Wind: 3mph
Humidity: 56%   Direction: NA
Pressure: 30.39"   Gusts: NA
Location:  37.52°N, 120.44°W
Report Text: KMER 252345Z VRB03KT 5SM HZ SKC 18/09 A3039
Loading
Personal Weather Stations






























Interactive Weather Map New forecast layout! Learn more

10-Day Weather Forecast

Advertisements
Track Severe Weather on mobile